Tulsa, Oklahoma
Current Conditions -  °F | °C
As of 8:53 PM on Monday 20 Oct 2014 (Local Time) from KTUL Reporting Station
Few Clouds Few Clouds  
Wind Chill: 66°   Ceiling: Unl
Heat Index: 66°   Visibility: 10mi
Dew Point: 60°   Wind: 3mph
Humidity: 81%   Direction: 130°SE
Pressure: 30.03"   Gusts: NA
Location:  36.15°N, 95.99°W
Report Text: KTUL 210153Z 13003KT 10SM FEW080 19/16 A3003 RMK AO2 SLP166 T01890156
Loading
Personal Weather Stations






























Interactive Weather Map New forecast layout! Learn more

10-Day Weather Forecast

Advertisements
Track Severe Weather on mobile